Terminal Aerodrome Forecast
Issued by NWS Cleveland, OH

Home | Current Version | Previous Version | Graphics & Text | Print | Product List | Glossary On
Versions: 1 2 3 4 5 6 7 8 9 10 11 12 13 14 15 16 17 18 19 20 21
704
FTUS41 KCLE 270534
TAFCAK
TAF
KCAK 270534Z 2706/2806 12005KT P6SM SCT025 OVC045
     FM270700 12005KT 6SM -SHRA BR SCT025 OVC040
      TEMPO 2707/2710 3SM -SHRA BKN025 OVC040
     FM271000 10007KT P6SM VCSH BKN012 OVC025
     FM271600 08008KT P6SM OVC020
     FM271800 08005KT P6SM BKN035
     FM272100 03005KT P6SM SCT040 BKN120=

USA.gov is the U.S. government's official web portal to all federal, state and local government web resources and services.